createdAt,value
2022-11-27T00:01:34.815Z,47.20
2022-11-27T00:04:03.221Z,41.30
2022-11-27T00:06:32.300Z,39.60
2022-11-27T00:09:03.390Z,39.40
2022-11-27T00:11:32.316Z,44.10
2022-11-27T00:14:00.770Z,42.30
2022-11-27T00:16:29.365Z,40.50
2022-11-27T00:18:57.635Z,38.90
2022-11-27T00:21:28.697Z,39.30
2022-11-27T00:23:59.052Z,39.90
2022-11-27T00:26:33.049Z,39.70
2022-11-27T00:29:04.256Z,39.30
2022-11-27T00:31:33.832Z,43.60
2022-11-27T00:34:04.006Z,41.80
2022-11-27T00:36:34.240Z,36.00
2022-11-27T00:39:02.533Z,44.00
2022-11-27T00:41:31.191Z,34.10
2022-11-27T00:43:59.328Z,37.40
2022-11-27T00:46:30.299Z,36.50
2022-11-27T00:49:00.521Z,41.80
2022-11-27T00:51:29.623Z,41.00
2022-11-27T00:53:58.418Z,41.90
2022-11-27T00:56:31.657Z,20.00
2022-11-27T00:59:00.842Z,39.20
2022-11-27T01:01:35.215Z,41.50
2022-11-27T01:04:05.129Z,49.50
2022-11-27T01:06:33.271Z,39.40
2022-11-27T01:09:01.271Z,44.70
2022-11-27T01:11:32.100Z,33.60
2022-11-27T01:14:03.289Z,34.00
2022-11-27T01:16:32.935Z,40.00
2022-11-27T01:19:02.501Z,43.80
2022-11-27T01:21:33.652Z,43.40
2022-11-27T01:24:04.851Z,40.90
2022-11-27T01:26:32.849Z,45.40
2022-11-27T01:29:00.989Z,45.70
2022-11-27T01:31:31.701Z,47.50
2022-11-27T01:34:03.544Z,33.90
2022-11-27T01:39:01.085Z,48.10
2022-11-27T01:41:32.253Z,43.70
2022-11-27T01:44:25.152Z,39.40
2022-11-27T01:46:58.648Z,38.80
2022-11-27T01:49:35.733Z,39.10
2022-11-27T01:52:08.427Z,42.40
2022-11-27T01:54:54.287Z,48.40
2022-11-27T01:57:27.392Z,33.80
2022-11-27T01:59:58.905Z,45.20
2022-11-27T02:02:27.117Z,39.70
2022-11-27T02:04:59.613Z,38.30
2022-11-27T02:07:27.742Z,41.30
2022-11-27T02:09:55.867Z,43.70
2022-11-27T02:12:32.212Z,43.30
2022-11-27T02:15:06.348Z,40.20
2022-11-27T02:17:49.867Z,47.60
2022-11-27T02:20:28.862Z,41.40
2022-11-27T02:23:12.000Z,48.90
2022-11-27T02:26:20.939Z,39.20
2022-11-27T02:29:00.095Z,39.80
2022-11-27T02:31:47.016Z,46.90
2022-11-27T02:34:21.927Z,39.40
2022-11-27T02:36:58.604Z,39.30
2022-11-27T02:39:35.264Z,41.20
2022-11-27T02:42:14.200Z,40.20
2022-11-27T02:44:47.937Z,45.40
2022-11-27T02:47:16.358Z,41.20
2022-11-27T02:49:46.187Z,42.70
2022-11-27T02:52:17.830Z,45.70
2022-11-27T02:54:50.309Z,44.30
2022-11-27T02:57:21.264Z,44.20
2022-11-27T02:59:52.058Z,46.40
2022-11-27T03:02:28.598Z,40.20
2022-11-27T03:04:59.781Z,38.00
2022-11-27T03:08:04.847Z,38.60
2022-11-27T03:10:43.453Z,41.70
2022-11-27T03:13:12.043Z,43.90
2022-11-27T03:15:51.329Z,38.30
2022-11-27T03:18:31.309Z,43.30
2022-11-27T03:21:09.294Z,37.80
2022-11-27T03:23:37.366Z,37.70
2022-11-27T03:26:05.607Z,40.90
2022-11-27T03:28:34.631Z,39.50
2022-11-27T03:31:02.761Z,45.10
2022-11-27T03:33:30.902Z,50.00
2022-11-27T03:35:58.910Z,44.80
2022-11-27T03:38:27.783Z,43.70
2022-11-27T03:41:07.083Z,44.60
2022-11-27T03:43:44.892Z,46.50
2022-11-27T03:46:29.541Z,43.40
2022-11-27T03:49:27.059Z,48.80
2022-11-27T03:52:04.235Z,33.10
2022-11-27T03:55:13.560Z,42.80
2022-11-27T03:57:54.789Z,48.30
2022-11-27T04:00:22.925Z,40.60
2022-11-27T04:02:53.745Z,38.90
2022-11-27T04:05:21.837Z,40.10
2022-11-27T04:07:50.077Z,28.60
2022-11-27T04:10:18.269Z,41.50
2022-11-27T04:12:46.309Z,37.80
2022-11-27T04:15:14.648Z,41.20
2022-11-27T04:17:42.652Z,47.50
2022-11-27T04:20:13.520Z,45.50
2022-11-27T04:22:41.739Z,44.30
2022-11-27T04:25:10.012Z,49.30
2022-11-27T04:27:38.042Z,40.10
2022-11-27T04:30:07.129Z,44.00
2022-11-27T04:32:35.224Z,38.60
2022-11-27T04:35:03.746Z,38.90
2022-11-27T04:37:32.262Z,40.40
2022-11-27T04:40:00.375Z,51.40
2022-11-27T04:42:28.392Z,39.50
2022-11-27T04:44:56.461Z,41.80
2022-11-27T04:47:24.586Z,38.20
2022-11-27T04:49:52.652Z,39.80
2022-11-27T04:52:20.648Z,45.10
2022-11-27T04:54:48.650Z,43.20
2022-11-27T04:57:16.669Z,39.80
2022-11-27T04:59:44.753Z,43.60
2022-11-27T05:02:12.825Z,42.70
2022-11-27T05:04:41.211Z,43.00
2022-11-27T05:07:09.526Z,41.60
2022-11-27T05:09:37.796Z,37.10
2022-11-27T05:12:06.849Z,40.30
2022-11-27T05:14:35.156Z,43.00
2022-11-27T05:17:03.511Z,43.00
2022-11-27T05:19:32.212Z,40.50
2022-11-27T05:22:00.255Z,43.60
2022-11-27T05:24:29.281Z,39.50
2022-11-27T05:26:57.328Z,42.40
2022-11-27T05:29:26.455Z,39.50
2022-11-27T05:31:54.589Z,42.70
2022-11-27T05:34:22.805Z,43.20
2022-11-27T05:36:50.880Z,44.60
2022-11-27T05:39:18.950Z,40.90
2022-11-27T05:41:46.945Z,41.70
2022-11-27T05:44:15.739Z,43.60
2022-11-27T05:46:43.886Z,46.10
2022-11-27T05:49:14.485Z,43.90
2022-11-27T05:51:50.501Z,38.10
2022-11-27T05:54:20.055Z,35.00
2022-11-27T05:56:48.066Z,43.60
2022-11-27T05:59:16.227Z,42.80
2022-11-27T06:01:44.515Z,39.70
2022-11-27T06:04:12.610Z,42.70
2022-11-27T06:06:40.632Z,42.40
2022-11-27T06:09:12.844Z,42.10
2022-11-27T06:11:42.742Z,38.40
2022-11-27T06:14:11.829Z,44.40
2022-11-27T06:16:39.911Z,36.70
2022-11-27T06:19:09.187Z,34.10
2022-11-27T06:21:37.480Z,39.70
2022-11-27T06:24:05.847Z,39.10
2022-11-27T06:26:34.572Z,46.80
2022-11-27T06:29:02.683Z,41.60
2022-11-27T06:31:33.074Z,46.20
2022-11-27T06:34:01.834Z,47.10
2022-11-27T06:36:35.313Z,39.90
2022-11-27T06:39:05.397Z,41.60
2022-11-27T06:41:33.795Z,45.30
2022-11-27T06:44:02.617Z,41.40
2022-11-27T06:46:31.187Z,40.20
2022-11-27T06:49:01.211Z,41.10
2022-11-27T06:51:31.502Z,36.70
2022-11-27T06:54:01.202Z,42.10
2022-11-27T06:56:31.847Z,41.70
2022-11-27T06:59:01.760Z,38.00
2022-11-27T07:01:31.888Z,41.40
2022-11-27T07:04:00.580Z,43.80
2022-11-27T07:06:29.126Z,44.80
2022-11-27T07:08:57.687Z,39.00
2022-11-27T07:11:29.807Z,39.00
2022-11-27T07:14:01.596Z,36.40
2022-11-27T07:19:01.985Z,40.90
2022-11-27T07:21:30.248Z,50.60
2022-11-27T07:23:58.317Z,119.40
2022-11-27T07:26:28.513Z,100.00
2022-11-27T07:28:57.107Z,93.90
2022-11-27T07:31:28.424Z,73.10
2022-11-27T07:33:57.336Z,55.10
2022-11-27T07:36:29.482Z,49.20
2022-11-27T07:38:58.364Z,63.20
2022-11-27T07:41:32.188Z,87.80
2022-11-27T07:44:02.113Z,76.80
2022-11-27T07:46:30.663Z,116.90
2022-11-27T07:49:00.773Z,71.30
2022-11-27T07:51:28.992Z,62.00
2022-11-27T07:53:57.216Z,59.60
2022-11-27T07:56:25.828Z,49.90
2022-11-27T07:58:53.883Z,49.30
2022-11-27T08:01:22.479Z,50.40
2022-11-27T08:03:50.961Z,55.60
2022-11-27T08:06:20.337Z,56.20
2022-11-27T08:08:49.213Z,55.20
2022-11-27T08:11:19.073Z,59.00
2022-11-27T08:13:47.186Z,58.90
2022-11-27T08:16:15.848Z,50.90
2022-11-27T08:18:43.955Z,53.90
2022-11-27T08:21:12.184Z,48.00
2022-11-27T08:23:40.221Z,44.90
2022-11-27T08:26:10.281Z,41.90
2022-11-27T08:28:39.247Z,44.60
2022-11-27T08:31:10.093Z,51.40
2022-11-27T08:33:38.269Z,77.60
2022-11-27T08:36:09.699Z,55.50
2022-11-27T08:38:40.103Z,61.00
2022-11-27T08:41:09.514Z,42.70
2022-11-27T08:43:37.611Z,38.30
2022-11-27T08:46:07.533Z,44.80
2022-11-27T08:48:36.371Z,43.00
2022-11-27T08:51:08.986Z,51.80
2022-11-27T08:53:37.974Z,69.60
2022-11-27T08:56:11.978Z,55.50
2022-11-27T08:58:41.301Z,48.90
2022-11-27T09:01:19.020Z,60.40
2022-11-27T09:03:48.640Z,54.40
2022-11-27T09:06:19.772Z,57.00
2022-11-27T09:08:48.641Z,40.30
2022-11-27T09:11:19.616Z,49.50
2022-11-27T09:13:48.152Z,48.60
2022-11-27T09:16:19.150Z,56.50
2022-11-27T09:18:50.005Z,47.40
2022-11-27T09:21:20.454Z,35.50
2022-11-27T09:23:49.047Z,43.50
2022-11-27T09:26:17.630Z,48.70
2022-11-27T09:28:46.171Z,52.00
2022-11-27T09:31:15.940Z,44.40
2022-11-27T09:33:45.910Z,50.50
2022-11-27T09:36:20.379Z,41.10
2022-11-27T09:38:48.711Z,49.60
2022-11-27T09:41:26.819Z,45.30
2022-11-27T09:44:02.041Z,47.30
2022-11-27T09:46:35.308Z,48.10
2022-11-27T09:49:08.313Z,45.40
2022-11-27T09:51:45.382Z,48.20
2022-11-27T09:54:26.182Z,44.80
2022-11-27T09:56:56.511Z,48.40
2022-11-27T09:59:33.747Z,48.50
2022-11-27T10:02:01.982Z,44.20
2022-11-27T10:04:39.874Z,51.20
2022-11-27T10:07:41.968Z,45.60
2022-11-27T10:10:10.237Z,42.90
2022-11-27T10:12:56.630Z,41.70
2022-11-27T10:15:39.659Z,40.00
2022-11-27T10:18:40.446Z,47.80
2022-11-27T10:21:22.812Z,45.00
2022-11-27T10:24:19.345Z,41.50
2022-11-27T10:26:49.639Z,47.80
2022-11-27T10:29:57.881Z,53.90
2022-11-27T10:32:54.533Z,44.30
2022-11-27T10:35:22.295Z,91.00
2022-11-27T10:38:15.235Z,48.30
2022-11-27T10:40:53.661Z,48.70
2022-11-27T10:43:24.012Z,52.20
2022-11-27T10:46:13.057Z,48.30
2022-11-27T10:48:41.468Z,62.00
2022-11-27T10:51:21.697Z,41.50
2022-11-27T10:53:54.833Z,50.40
2022-11-27T10:56:56.316Z,45.80
2022-11-27T10:59:35.051Z,50.30
2022-11-27T11:02:05.812Z,53.00
2022-11-27T11:04:38.365Z,74.50
2022-11-27T11:07:29.336Z,84.90
2022-11-27T11:09:57.827Z,62.80
2022-11-27T11:12:25.926Z,44.50
2022-11-27T11:14:56.307Z,36.60
2022-11-27T11:17:30.970Z,43.50
2022-11-27T11:19:59.022Z,51.60
2022-11-27T11:22:29.952Z,41.50
2022-11-27T11:24:58.246Z,37.80
2022-11-27T11:27:32.443Z,32.00
2022-11-27T11:30:03.745Z,147.40
2022-11-27T11:32:40.421Z,38.80
2022-11-27T11:35:23.402Z,46.30
2022-11-27T11:37:52.877Z,45.10
2022-11-27T11:40:23.813Z,41.90
2022-11-27T11:42:59.200Z,71.80
2022-11-27T11:45:33.253Z,78.90
2022-11-27T11:48:04.515Z,61.40
2022-11-27T11:50:44.143Z,33.90
2022-11-27T11:53:40.126Z,34.60
2022-11-27T11:56:20.848Z,35.60
2022-11-27T11:59:22.766Z,37.50
2022-11-27T12:02:09.683Z,28.80
2022-11-27T12:05:04.833Z,30.10
2022-11-27T12:08:10.620Z,51.10
2022-11-27T12:10:52.257Z,35.10
2022-11-27T12:13:23.172Z,31.80
2022-11-27T12:16:32.684Z,50.60
2022-11-27T12:19:42.016Z,33.60
2022-11-27T12:22:22.793Z,33.40
2022-11-27T12:24:59.160Z,32.60
2022-11-27T12:28:00.781Z,31.10
2022-11-27T12:30:38.302Z,32.30
2022-11-27T12:33:45.906Z,35.50
2022-11-27T12:36:20.430Z,30.20
2022-11-27T12:38:55.653Z,46.50
2022-11-27T12:41:57.973Z,36.30
2022-11-27T12:47:31.071Z,53.40
2022-11-27T12:50:27.447Z,46.70
2022-11-27T12:53:18.905Z,31.80
2022-11-27T12:56:20.613Z,25.20
2022-11-27T12:58:56.514Z,33.20
2022-11-27T13:01:36.934Z,29.90
2022-11-27T13:04:20.173Z,29.50
2022-11-27T13:07:28.713Z,36.40
2022-11-27T13:10:31.387Z,44.90
2022-11-27T13:13:14.510Z,32.60
2022-11-27T13:16:07.075Z,31.90
2022-11-27T13:18:36.915Z,28.30
2022-11-27T13:21:09.666Z,34.30
2022-11-27T13:23:37.807Z,36.40
2022-11-27T13:26:12.742Z,42.00
2022-11-27T13:28:43.312Z,128.40
2022-11-27T13:31:26.398Z,109.50
2022-11-27T13:34:04.531Z,42.10
2022-11-27T13:36:39.567Z,59.50
2022-11-27T13:39:23.886Z,42.10
2022-11-27T13:42:18.521Z,40.30
2022-11-27T13:45:10.923Z,31.20
2022-11-27T13:47:44.447Z,38.20
2022-11-27T13:50:15.913Z,37.30
2022-11-27T13:53:00.247Z,46.70
2022-11-27T13:55:32.727Z,51.40
2022-11-27T13:58:02.803Z,53.00
2022-11-27T14:00:38.936Z,54.60
2022-11-27T14:03:20.690Z,48.00
2022-11-27T14:05:48.794Z,56.70
2022-11-27T14:08:24.352Z,58.60
2022-11-27T14:10:59.388Z,59.00
2022-11-27T14:13:44.118Z,44.90
2022-11-27T14:16:33.518Z,29.40
2022-11-27T14:19:25.654Z,37.70
2022-11-27T14:21:55.542Z,38.20
2022-11-27T14:24:47.242Z,32.80
2022-11-27T14:27:28.803Z,35.30
2022-11-27T14:29:56.831Z,38.30
2022-11-27T14:32:35.918Z,31.10
2022-11-27T14:35:04.229Z,33.70
2022-11-27T14:37:32.252Z,28.80
2022-11-27T14:40:00.579Z,33.60
2022-11-27T14:42:34.069Z,32.60
2022-11-27T14:45:19.929Z,39.10
2022-11-27T14:47:51.524Z,36.30
2022-11-27T14:50:21.418Z,44.00
2022-11-27T14:52:55.392Z,38.80
2022-11-27T14:55:24.424Z,34.20
2022-11-27T14:57:52.495Z,38.70
2022-11-27T15:00:25.351Z,33.00
2022-11-27T15:02:54.479Z,33.60
2022-11-27T15:05:25.318Z,32.90
2022-11-27T15:07:56.320Z,30.80
2022-11-27T15:10:38.360Z,34.60
2022-11-27T15:13:08.832Z,36.80
2022-11-27T15:15:44.377Z,29.10
2022-11-27T15:18:22.937Z,33.70
2022-11-27T15:20:52.457Z,31.30
2022-11-27T15:23:29.697Z,35.20
2022-11-27T15:26:11.032Z,39.30
2022-11-27T15:28:53.912Z,46.10
2022-11-27T15:31:28.262Z,67.70
2022-11-27T15:33:59.976Z,127.90
2022-11-27T15:36:35.444Z,145.30
2022-11-27T15:39:21.614Z,146.20
2022-11-27T15:41:51.760Z,160.70
2022-11-27T15:44:21.056Z,210.80
2022-11-27T15:46:50.927Z,251.80
2022-11-27T15:49:23.140Z,220.20
2022-11-27T15:51:51.638Z,197.50
2022-11-27T15:54:19.790Z,155.00
2022-11-27T15:56:48.293Z,127.60
2022-11-27T15:59:17.553Z,123.90
2022-11-27T16:01:45.653Z,108.30
2022-11-27T16:04:13.759Z,114.40
2022-11-27T16:06:41.819Z,96.20
2022-11-27T16:09:09.862Z,117.30
2022-11-27T16:11:38.000Z,109.40
2022-11-27T16:14:06.168Z,112.70
2022-11-27T16:16:35.688Z,130.10
2022-11-27T16:19:06.559Z,110.90
2022-11-27T16:21:35.636Z,127.90
2022-11-27T16:24:06.656Z,96.20
2022-11-27T16:26:36.997Z,115.50
2022-11-27T16:29:06.526Z,186.30
2022-11-27T16:31:35.171Z,174.10
2022-11-27T16:34:06.018Z,173.00
2022-11-27T16:36:34.976Z,175.90
2022-11-27T16:39:03.947Z,167.40
2022-11-27T16:41:32.415Z,173.30
2022-11-27T16:44:00.436Z,150.00
2022-11-27T16:46:30.704Z,151.50
2022-11-27T16:49:00.892Z,142.10
2022-11-27T16:51:34.017Z,151.10
2022-11-27T16:54:05.567Z,157.50
2022-11-27T16:56:34.772Z,160.50
2022-11-27T16:59:11.162Z,147.00
2022-11-27T17:01:41.825Z,168.10
2022-11-27T17:04:19.765Z,153.50
2022-11-27T17:06:49.698Z,151.00
2022-11-27T17:09:18.525Z,151.10
2022-11-27T17:11:50.998Z,198.00
2022-11-27T17:14:20.762Z,209.90
2022-11-27T17:16:50.292Z,184.90
2022-11-27T17:19:18.920Z,184.50
2022-11-27T17:21:47.550Z,141.90
2022-11-27T17:24:17.195Z,143.40
2022-11-27T17:26:48.102Z,132.20
2022-11-27T17:29:19.510Z,117.50
2022-11-27T17:31:47.888Z,106.80
2022-11-27T17:34:17.900Z,102.20
2022-11-27T17:36:47.090Z,99.40
2022-11-27T17:39:15.553Z,85.60
2022-11-27T17:41:47.537Z,83.70
2022-11-27T17:46:48.280Z,83.30
2022-11-27T17:49:17.049Z,76.10
2022-11-27T17:51:46.149Z,84.80
2022-11-27T17:54:15.401Z,92.20
2022-11-27T17:56:43.402Z,124.50
2022-11-27T17:59:11.945Z,116.50
2022-11-27T18:01:40.793Z,197.90
2022-11-27T18:04:10.621Z,199.50
2022-11-27T18:06:39.780Z,196.80
2022-11-27T18:09:10.043Z,243.20
2022-11-27T18:11:39.948Z,259.50
2022-11-27T18:14:13.689Z,263.60
2022-11-27T18:16:42.630Z,276.20
2022-11-27T18:19:11.611Z,235.90
2022-11-27T18:21:40.152Z,278.90
2022-11-27T18:24:23.895Z,218.00
2022-11-27T18:27:09.945Z,184.50
2022-11-27T18:29:41.704Z,195.40
2022-11-27T18:32:11.966Z,138.60
2022-11-27T18:34:40.981Z,150.20
2022-11-27T18:37:09.899Z,107.90
2022-11-27T18:39:39.819Z,131.50
2022-11-27T18:42:08.420Z,124.80
2022-11-27T18:44:44.301Z,169.30
2022-11-27T18:47:15.403Z,118.20
2022-11-27T18:49:47.919Z,90.20
2022-11-27T18:52:16.446Z,91.70
2022-11-27T18:54:44.577Z,253.90
2022-11-27T18:57:13.316Z,164.00
2022-11-27T18:59:44.271Z,148.50
2022-11-27T19:02:13.646Z,116.40
2022-11-27T19:04:44.531Z,104.00
2022-11-27T19:07:13.056Z,120.20
2022-11-27T19:09:41.640Z,122.10
2022-11-27T19:12:10.204Z,119.40
2022-11-27T19:14:39.391Z,105.60
2022-11-27T19:17:07.769Z,104.50
2022-11-27T19:22:24.277Z,141.40
2022-11-27T19:24:52.380Z,156.00
2022-11-27T19:27:20.466Z,99.60
2022-11-27T19:29:49.256Z,125.00
2022-11-27T19:32:17.406Z,98.20
2022-11-27T19:34:45.457Z,98.30
2022-11-27T19:37:13.602Z,125.90
2022-11-27T19:39:42.008Z,103.50
2022-11-27T19:42:10.229Z,98.70
2022-11-27T19:44:38.404Z,95.70
2022-11-27T19:47:09.574Z,93.80
2022-11-27T19:49:37.736Z,90.60
2022-11-27T19:52:05.897Z,108.30
2022-11-27T19:54:34.272Z,122.40
2022-11-27T19:57:04.526Z,110.20
2022-11-27T19:59:32.573Z,130.10
2022-11-27T20:02:00.794Z,129.20
2022-11-27T20:04:29.613Z,117.10
2022-11-27T20:06:57.701Z,106.80
2022-11-27T20:09:25.825Z,102.00
2022-11-27T20:11:54.084Z,110.90
2022-11-27T20:14:22.272Z,108.80
2022-11-27T20:16:51.163Z,100.30
2022-11-27T20:19:19.510Z,116.70
2022-11-27T20:21:47.829Z,108.90
2022-11-27T20:24:16.138Z,138.00
2022-11-27T20:26:45.475Z,143.50
2022-11-27T20:29:13.988Z,119.40
2022-11-27T20:31:44.643Z,105.10
2022-11-27T20:34:21.294Z,89.50
2022-11-27T20:36:49.545Z,129.40
2022-11-27T20:39:21.250Z,138.70
2022-11-27T20:41:51.956Z,132.10
2022-11-27T20:44:22.765Z,130.40
2022-11-27T20:46:51.388Z,120.30
2022-11-27T20:49:20.737Z,123.20
2022-11-27T20:51:51.806Z,131.30
2022-11-27T20:54:23.631Z,105.80
2022-11-27T20:56:51.862Z,115.80
2022-11-27T20:59:20.103Z,102.10
2022-11-27T21:01:49.175Z,88.40
2022-11-27T21:04:24.505Z,92.60
2022-11-27T21:06:53.897Z,80.90
2022-11-27T21:09:22.285Z,79.60
2022-11-27T21:11:50.448Z,73.20
2022-11-27T21:14:20.028Z,71.70
2022-11-27T21:16:50.837Z,78.60
2022-11-27T21:19:19.816Z,78.70
2022-11-27T21:21:48.936Z,97.20
2022-11-27T21:24:18.791Z,118.10
2022-11-27T21:26:48.139Z,102.90
2022-11-27T21:29:16.583Z,100.40
2022-11-27T21:31:47.052Z,101.20
2022-11-27T21:34:16.524Z,94.20
2022-11-27T21:36:45.274Z,92.70
2022-11-27T21:39:21.062Z,103.00
2022-11-27T21:41:51.942Z,79.60
2022-11-27T21:44:22.446Z,69.80
2022-11-27T21:46:51.509Z,69.80
2022-11-27T21:49:20.847Z,73.80
2022-11-27T21:51:53.795Z,86.50
2022-11-27T21:54:25.300Z,66.90
2022-11-27T21:56:53.664Z,86.00
2022-11-27T21:59:21.753Z,78.90
2022-11-27T22:01:50.303Z,81.50
2022-11-27T22:04:18.747Z,86.70
2022-11-27T22:06:47.260Z,80.40
2022-11-27T22:09:16.200Z,73.00
2022-11-27T22:11:46.140Z,72.80
2022-11-27T22:14:15.945Z,85.60
2022-11-27T22:16:46.732Z,72.40
2022-11-27T22:19:16.472Z,74.40
2022-11-27T22:21:45.312Z,69.00
2022-11-27T22:24:18.995Z,71.40
2022-11-27T22:26:48.750Z,74.20
2022-11-27T22:29:17.038Z,74.90
2022-11-27T22:31:45.192Z,69.10
2022-11-27T22:34:13.677Z,71.30
2022-11-27T22:36:42.199Z,62.60
2022-11-27T22:39:10.626Z,75.00
2022-11-27T22:41:40.408Z,62.30
2022-11-27T22:44:11.356Z,72.30
2022-11-27T22:46:41.422Z,69.30
2022-11-27T22:49:11.415Z,65.30
2022-11-27T22:51:40.748Z,66.30
2022-11-27T22:54:12.958Z,60.00
2022-11-27T22:56:41.656Z,62.50
2022-11-27T23:01:59.892Z,52.10
2022-11-27T23:04:28.643Z,63.90
2022-11-27T23:06:56.705Z,59.10
2022-11-27T23:09:25.482Z,58.30
2022-11-27T23:11:53.671Z,65.70
2022-11-27T23:14:21.740Z,57.50
2022-11-27T23:16:50.244Z,61.40
2022-11-27T23:19:18.705Z,58.60
2022-11-27T23:21:46.776Z,61.00
2022-11-27T23:24:16.160Z,62.00
2022-11-27T23:26:45.977Z,56.10
2022-11-27T23:29:14.573Z,55.40
2022-11-27T23:31:43.091Z,62.50
2022-11-27T23:34:14.158Z,135.60
2022-11-27T23:36:42.781Z,118.50
2022-11-27T23:39:13.182Z,75.50
2022-11-27T23:41:42.148Z,79.90
2022-11-27T23:44:10.419Z,62.90
2022-11-27T23:46:38.442Z,53.10
2022-11-27T23:49:06.475Z,58.20
2022-11-27T23:51:34.605Z,47.40
2022-11-27T23:54:08.667Z,53.60
2022-11-27T23:56:38.103Z,55.90
2022-11-27T23:59:06.492Z,56.80
